Etusivu
METAR-TAF:

METAR-TAF

Lentoasemat :

Lugano, Sveitsi

Leveyspiiri: 46-00N, Pituuspiiri: 008-58E, korkeus merenpinnasta: 273 m

Tämänhetkinen sää

Tämä raportti tehtiin 12 minuuttia sitten, kello 02.20 UTC
Tuuli 2 kn eri suunnista
Lämpötila 15°C
Kosteus 82%
Ilmanpaine 1006 hPa
Näkyvyys 10 km tai enemmän
Hajonneita pilviä 4600 ft:n korkeudessa

METAR: LSZA 060220Z AUTO VRB02KT 9999 BKN046 15/12 Q1006

Aika: 04:32 (02:32 UTC)

Sääennuste

Tämä raportti tehtiin 12 tuntia ja 7 minuuttia sitten, kello 14.25 UTC
Ennuste voimassa 05. päivästä klo 15 UTC - 05. päivään klo 24 UTC
Tuuli 7 kn lännestä
Näkyvyys 10 km tai enemmän
Hajanaisia pilviä 7000 ft:n korkeudessa

TAF: LSZA 051425Z 0515/0524 26007KT 9999 SCT070

Säähavainnot ja -ennusteet yli 4000 lentoasemalta (METAR- ja TAF-raportit).

Käytössä olevat sääasemat on merkitty karttaan keltaisilla ja punaisilla pisteillä.

Aseta hiiri pisteen päälle nähdäksesi sääaseman nimen.

Klikkaa sitten nähdäksesi säähavainnot ja -ennusteet.

Kartan vaihtaminen: klikkaa mustalla rastilla varustettuja vihreitä pisteitä, niin voit zoomata sisään; viivalla varustettua vihreää pistettä, niin voit zoomata ulos tai vihreitä nuolia, niin pääset viereisille kartoille.


METAR-TAF: